Terminal Aerodrome Forecast
Issued by NWS

Home | Current Version | Previous Version | Graphics & Text | Print | Product List | Glossary On
Versions: 1 2 3 4 5 6 7 8 9 10 11 12
935
FTUS43 KABR 181136
TAFATY
TAF
KATY 181136Z 1812/1912 20008KT P6SM FEW250
     FM181900 25007KT P6SM FEW250
     FM190200 20006KT P6SM SCT250=

USA.gov is the U.S. government's official web portal to all federal, state and local government web resources and services.